Capitol Logistics 1874

Operating for CJT



CYWG
Winnipeg / James Armstrong Richardson International Airport
Winnipeg, CA
CYHM
John C. Munro Hamilton International Airport
Hamilton, CA

Activity Log

Date Flight Route Aircraft Duration
11/06/2021 CPX1874 RORMA PO DEGVA VBI J500 YQT ISQ ASP AVSOX AVSOX2 B752 2h 10m
10/12/2021 CPX1874 RORMA PO DEGVA VBI J500 YQT ISQ ASP AVSOX AVSOX2 B752 2h 12m

Route Details

Aircraft Information
Group: North America Fleet
Types: B738,B752,B762,B763
Route Data
Demand: M
Distance: 819nm
Duration: 1h 55m
Recm'd Route: RORMA PO DEGVA VBI J500 YQT ISQ ASP AVSOX AVSOX2
Origin Wx: CYWG 242000Z 19011G19KT 15SM BKN060 22/07 A3006 RMK CU5 SLP186 DENSITY ALT 1600FT
Dest. Wx: CYHM 242000Z 03012G19KT 15SM FEW040 FEW220 16/06 A3025 RMK CF1CI2 CF TR SLP248 DENSITY ALT 800FT
Notes:

Financial History
Total Freight: 97,993lbs
Average Load: 48,997lbs/flt
Fuel Used: 32,076lbs
Avg. Fuel Used: 16,038lbs/flt
Fuel Expense: $10,730
Avg. Fuel Expense: $5,365
Avg. Fuel Cost: $0.34/lbs
Total Gross Income: $256,742
Pilot Pay: $248
Total Expenses: $31,561
Total Revenue: $213,929
Average Revenue: $128,370.83